sensor_id;sensor_type;location;lat;lon;timestamp;P1;durP1;ratioP1;P2;durP2;ratioP2
75218;SDS011;63801;49.414;19.474;2022-12-07T00:01:06;4.22;;;2.38;;
75218;SDS011;63801;49.414;19.474;2022-12-07T00:03:08;3.75;;;2.10;;
75218;SDS011;63801;49.414;19.474;2022-12-07T00:05:08;6.63;;;2.92;;
75218;SDS011;63801;49.414;19.474;2022-12-07T00:07:08;3.88;;;1.67;;
75218;SDS011;63801;49.414;19.474;2022-12-07T00:09:10;3.20;;;1.90;;
75218;SDS011;63801;49.414;19.474;2022-12-07T00:11:13;4.60;;;2.53;;
75218;SDS011;63801;49.414;19.474;2022-12-07T00:13:15;3.92;;;2.38;;
75218;SDS011;63801;49.414;19.474;2022-12-07T00:15:15;4.68;;;2.40;;
75218;SDS011;63801;49.414;19.474;2022-12-07T00:17:16;5.05;;;2.28;;
75218;SDS011;63801;49.414;19.474;2022-12-07T00:19:16;4.60;;;2.28;;
75218;SDS011;63801;49.414;19.474;2022-12-07T00:21:18;4.35;;;2.30;;
75218;SDS011;63801;49.414;19.474;2022-12-07T00:23:20;4.32;;;2.38;;
75218;SDS011;63801;49.414;19.474;2022-12-07T00:25:20;4.80;;;2.60;;
75218;SDS011;63801;49.414;19.474;2022-12-07T00:27:20;4.85;;;2.25;;
75218;SDS011;63801;49.414;19.474;2022-12-07T00:29:21;4.15;;;2.20;;
75218;SDS011;63801;49.414;19.474;2022-12-07T00:31:24;4.67;;;2.30;;
75218;SDS011;63801;49.414;19.474;2022-12-07T00:33:26;4.28;;;2.33;;
75218;SDS011;63801;49.414;19.474;2022-12-07T00:35:28;5.88;;;3.13;;
75218;SDS011;63801;49.414;19.474;2022-12-07T00:37:28;3.35;;;2.20;;
75218;SDS011;63801;49.414;19.474;2022-12-07T00:39:29;4.63;;;2.20;;
75218;SDS011;63801;49.414;19.474;2022-12-07T00:41:29;3.35;;;2.13;;
75218;SDS011;63801;49.414;19.474;2022-12-07T00:43:30;6.70;;;3.17;;
75218;SDS011;63801;49.414;19.474;2022-12-07T00:45:30;4.93;;;2.50;;
75218;SDS011;63801;49.414;19.474;2022-12-07T00:47:31;4.25;;;2.22;;
75218;SDS011;63801;49.414;19.474;2022-12-07T00:49:31;5.03;;;2.47;;
75218;SDS011;63801;49.414;19.474;2022-12-07T00:51:32;4.43;;;2.22;;
75218;SDS011;63801;49.414;19.474;2022-12-07T00:53:35;7.53;;;4.68;;
75218;SDS011;63801;49.414;19.474;2022-12-07T00:55:37;3.72;;;2.28;;
75218;SDS011;63801;49.414;19.474;2022-12-07T00:57:37;3.85;;;2.10;;
75218;SDS011;63801;49.414;19.474;2022-12-07T00:59:38;3.08;;;2.05;;
75218;SDS011;63801;49.414;19.474;2022-12-07T01:01:38;4.68;;;2.28;;
75218;SDS011;63801;49.414;19.474;2022-12-07T01:03:38;5.72;;;2.85;;
75218;SDS011;63801;49.414;19.474;2022-12-07T01:05:39;2.90;;;1.77;;
75218;SDS011;63801;49.414;19.474;2022-12-07T01:07:39;5.00;;;2.25;;
75218;SDS011;63801;49.414;19.474;2022-12-07T01:09:39;4.78;;;2.78;;
75218;SDS011;63801;49.414;19.474;2022-12-07T01:11:40;5.07;;;2.63;;
75218;SDS011;63801;49.414;19.474;2022-12-07T01:13:40;5.10;;;2.83;;
75218;SDS011;63801;49.414;19.474;2022-12-07T01:15:41;5.32;;;3.50;;
75218;SDS011;63801;49.414;19.474;2022-12-07T01:17:43;4.47;;;2.97;;
75218;SDS011;63801;49.414;19.474;2022-12-07T01:19:43;4.68;;;2.92;;
75218;SDS011;63801;49.414;19.474;2022-12-07T01:21:44;4.75;;;2.90;;
75218;SDS011;63801;49.414;19.474;2022-12-07T01:23:44;4.63;;;2.65;;
75218;SDS011;63801;49.414;19.474;2022-12-07T01:25:44;4.65;;;2.90;;
75218;SDS011;63801;49.414;19.474;2022-12-07T01:27:45;4.18;;;1.88;;
75218;SDS011;63801;49.414;19.474;2022-12-07T01:29:45;4.07;;;2.10;;
75218;SDS011;63801;49.414;19.474;2022-12-07T01:31:48;4.85;;;2.65;;
75218;SDS011;63801;49.414;19.474;2022-12-07T01:33:50;5.18;;;2.33;;
75218;SDS011;63801;49.414;19.474;2022-12-07T01:35:52;4.22;;;2.42;;
75218;SDS011;63801;49.414;19.474;2022-12-07T01:37:52;5.20;;;2.85;;
75218;SDS011;63801;49.414;19.474;2022-12-07T01:39:52;6.00;;;3.03;;
75218;SDS011;63801;49.414;19.474;2022-12-07T01:41:53;4.72;;;2.50;;
75218;SDS011;63801;49.414;19.474;2022-12-07T01:46:11;4.18;;;2.42;;
75218;SDS011;63801;49.414;19.474;2022-12-07T01:48:12;5.05;;;3.03;;
75218;SDS011;63801;49.414;19.474;2022-12-07T01:50:17;4.75;;;2.50;;
75218;SDS011;63801;49.414;19.474;2022-12-07T01:52:28;4.20;;;2.20;;
75218;SDS011;63801;49.414;19.474;2022-12-07T01:54:32;4.25;;;2.80;;
75218;SDS011;63801;49.414;19.474;2022-12-07T01:56:33;5.27;;;2.90;;
75218;SDS011;63801;49.414;19.474;2022-12-07T01:58:34;6.68;;;2.90;;
75218;SDS011;63801;49.414;19.474;2022-12-07T02:00:35;5.20;;;3.10;;
75218;SDS011;63801;49.414;19.474;2022-12-07T02:02:53;4.72;;;3.10;;
75218;SDS011;63801;49.414;19.474;2022-12-07T02:05:05;4.78;;;3.13;;
75218;SDS011;63801;49.414;19.474;2022-12-07T02:07:06;5.15;;;3.15;;
75218;SDS011;63801;49.414;19.474;2022-12-07T02:09:06;5.70;;;3.20;;
75218;SDS011;63801;49.414;19.474;2022-12-07T02:11:07;5.25;;;3.15;;
75218;SDS011;63801;49.414;19.474;2022-12-07T02:15:11;6.05;;;3.38;;
75218;SDS011;63801;49.414;19.474;2022-12-07T02:17:14;7.60;;;4.88;;
75218;SDS011;63801;49.414;19.474;2022-12-07T02:24:03;6.97;;;3.53;;
75218;SDS011;63801;49.414;19.474;2022-12-07T02:26:23;7.35;;;3.30;;
75218;SDS011;63801;49.414;19.474;2022-12-07T02:30:58;6.85;;;3.15;;
75218;SDS011;63801;49.414;19.474;2022-12-07T02:33:08;5.50;;;3.10;;
75218;SDS011;63801;49.414;19.474;2022-12-07T02:35:20;6.15;;;3.10;;
75218;SDS011;63801;49.414;19.474;2022-12-07T02:39:43;5.30;;;3.00;;
75218;SDS011;63801;49.414;19.474;2022-12-07T02:41:51;6.00;;;3.40;;
75218;SDS011;63801;49.414;19.474;2022-12-07T02:43:56;4.63;;;3.17;;
75218;SDS011;63801;49.414;19.474;2022-12-07T02:46:04;7.32;;;5.18;;
75218;SDS011;63801;49.414;19.474;2022-12-07T02:48:10;6.05;;;3.95;;
75218;SDS011;63801;49.414;19.474;2022-12-07T02:50:13;10.10;;;7.50;;
75218;SDS011;63801;49.414;19.474;2022-12-07T02:52:13;6.75;;;3.42;;
75218;SDS011;63801;49.414;19.474;2022-12-07T02:54:15;7.53;;;5.78;;
75218;SDS011;63801;49.414;19.474;2022-12-07T03:04:15;8.27;;;5.30;;
75218;SDS011;63801;49.414;19.474;2022-12-07T03:06:39;8.80;;;5.43;;
75218;SDS011;63801;49.414;19.474;2022-12-07T03:08:50;7.43;;;4.00;;
75218;SDS011;63801;49.414;19.474;2022-12-07T03:13:07;6.72;;;3.53;;
75218;SDS011;63801;49.414;19.474;2022-12-07T03:15:21;7.93;;;3.85;;
75218;SDS011;63801;49.414;19.474;2022-12-07T03:17:26;5.97;;;3.80;;
75218;SDS011;63801;49.414;19.474;2022-12-07T03:19:31;6.10;;;3.70;;
75218;SDS011;63801;49.414;19.474;2022-12-07T03:21:42;8.60;;;4.25;;
75218;SDS011;63801;49.414;19.474;2022-12-07T03:23:48;7.53;;;3.90;;
75218;SDS011;63801;49.414;19.474;2022-12-07T03:25:53;7.07;;;3.80;;
75218;SDS011;63801;49.414;19.474;2022-12-07T03:27:58;7.90;;;4.13;;
75218;SDS011;63801;49.414;19.474;2022-12-07T03:32:25;9.05;;;4.60;;
75218;SDS011;63801;49.414;19.474;2022-12-07T03:35:11;9.45;;;4.90;;
75218;SDS011;63801;49.414;19.474;2022-12-07T03:39:29;8.00;;;3.88;;
75218;SDS011;63801;49.414;19.474;2022-12-07T03:41:48;7.72;;;4.05;;
75218;SDS011;63801;49.414;19.474;2022-12-07T03:43:50;7.18;;;4.05;;
75218;SDS011;63801;49.414;19.474;2022-12-07T03:46:04;8.23;;;3.90;;
75218;SDS011;63801;49.414;19.474;2022-12-07T03:50:45;7.25;;;3.67;;
75218;SDS011;63801;49.414;19.474;2022-12-07T03:52:55;6.63;;;3.65;;
75218;SDS011;63801;49.414;19.474;2022-12-07T03:55:14;5.32;;;2.50;;
75218;SDS011;63801;49.414;19.474;2022-12-07T03:57:19;5.75;;;3.08;;
75218;SDS011;63801;49.414;19.474;2022-12-07T03:59:22;6.72;;;3.60;;
75218;SDS011;63801;49.414;19.474;2022-12-07T04:01:24;6.90;;;3.53;;
75218;SDS011;63801;49.414;19.474;2022-12-07T04:03:24;6.60;;;3.50;;
75218;SDS011;63801;49.414;19.474;2022-12-07T04:05:25;5.10;;;3.03;;
75218;SDS011;63801;49.414;19.474;2022-12-07T04:07:25;6.13;;;3.25;;
75218;SDS011;63801;49.414;19.474;2022-12-07T04:09:26;5.63;;;3.13;;
75218;SDS011;63801;49.414;19.474;2022-12-07T04:11:26;5.88;;;2.90;;
75218;SDS011;63801;49.414;19.474;2022-12-07T04:13:26;5.82;;;2.88;;
75218;SDS011;63801;49.414;19.474;2022-12-07T04:15:27;7.40;;;3.50;;
75218;SDS011;63801;49.414;19.474;2022-12-07T04:17:27;6.90;;;3.70;;
75218;SDS011;63801;49.414;19.474;2022-12-07T04:19:29;7.53;;;3.67;;
75218;SDS011;63801;49.414;19.474;2022-12-07T04:21:31;6.85;;;3.42;;
75218;SDS011;63801;49.414;19.474;2022-12-07T04:23:32;6.50;;;3.50;;
75218;SDS011;63801;49.414;19.474;2022-12-07T04:25:32;6.38;;;3.30;;
75218;SDS011;63801;49.414;19.474;2022-12-07T04:27:32;6.30;;;3.60;;
75218;SDS011;63801;49.414;19.474;2022-12-07T04:29:33;7.95;;;4.03;;
75218;SDS011;63801;49.414;19.474;2022-12-07T04:31:33;6.38;;;3.40;;
75218;SDS011;63801;49.414;19.474;2022-12-07T04:33:35;7.10;;;3.90;;
75218;SDS011;63801;49.414;19.474;2022-12-07T04:35:36;6.73;;;3.20;;
75218;SDS011;63801;49.414;19.474;2022-12-07T04:37:36;8.35;;;3.30;;
75218;SDS011;63801;49.414;19.474;2022-12-07T04:39:39;6.20;;;3.38;;
75218;SDS011;63801;49.414;19.474;2022-12-07T04:41:39;7.30;;;3.03;;
75218;SDS011;63801;49.414;19.474;2022-12-07T04:43:39;6.75;;;3.80;;
75218;SDS011;63801;49.414;19.474;2022-12-07T04:45:40;6.63;;;3.08;;
75218;SDS011;63801;49.414;19.474;2022-12-07T04:47:45;8.48;;;4.88;;
75218;SDS011;63801;49.414;19.474;2022-12-07T04:49:46;5.63;;;3.00;;
75218;SDS011;63801;49.414;19.474;2022-12-07T04:51:46;12.20;;;5.07;;
75218;SDS011;63801;49.414;19.474;2022-12-07T04:53:47;27.33;;;10.45;;
75218;SDS011;63801;49.414;19.474;2022-12-07T04:55:48;34.78;;;14.85;;
75218;SDS011;63801;49.414;19.474;2022-12-07T04:57:48;25.00;;;10.68;;
75218;SDS011;63801;49.414;19.474;2022-12-07T04:59:49;20.25;;;7.63;;
75218;SDS011;63801;49.414;19.474;2022-12-07T05:01:49;11.82;;;5.00;;
75218;SDS011;63801;49.414;19.474;2022-12-07T05:03:50;10.95;;;4.93;;
75218;SDS011;63801;49.414;19.474;2022-12-07T05:05:50;8.38;;;4.47;;
75218;SDS011;63801;49.414;19.474;2022-12-07T05:07:51;8.38;;;4.28;;
75218;SDS011;63801;49.414;19.474;2022-12-07T05:09:51;8.32;;;3.97;;
75218;SDS011;63801;49.414;19.474;2022-12-07T05:11:51;17.38;;;6.10;;
75218;SDS011;63801;49.414;19.474;2022-12-07T05:13:51;18.60;;;6.40;;
75218;SDS011;63801;49.414;19.474;2022-12-07T05:15:52;24.25;;;7.03;;
75218;SDS011;63801;49.414;19.474;2022-12-07T05:17:52;28.30;;;7.05;;
75218;SDS011;63801;49.414;19.474;2022-12-07T05:19:52;18.27;;;6.85;;
75218;SDS011;63801;49.414;19.474;2022-12-07T05:21:53;22.08;;;6.20;;
75218;SDS011;63801;49.414;19.474;2022-12-07T05:23:53;19.45;;;6.60;;
75218;SDS011;63801;49.414;19.474;2022-12-07T05:25:53;17.25;;;6.03;;
75218;SDS011;63801;49.414;19.474;2022-12-07T05:27:54;18.67;;;6.07;;
75218;SDS011;63801;49.414;19.474;2022-12-07T05:29:56;16.80;;;5.20;;
75218;SDS011;63801;49.414;19.474;2022-12-07T05:31:56;19.58;;;6.50;;
75218;SDS011;63801;49.414;19.474;2022-12-07T05:33:56;12.60;;;5.50;;
75218;SDS011;63801;49.414;19.474;2022-12-07T05:35:56;9.20;;;4.28;;
75218;SDS011;63801;49.414;19.474;2022-12-07T05:37:57;9.38;;;4.65;;
75218;SDS011;63801;49.414;19.474;2022-12-07T05:39:58;11.82;;;6.05;;
75218;SDS011;63801;49.414;19.474;2022-12-07T05:41:58;9.82;;;4.43;;
75218;SDS011;63801;49.414;19.474;2022-12-07T05:44:14;7.82;;;3.95;;
75218;SDS011;63801;49.414;19.474;2022-12-07T05:46:14;9.73;;;4.57;;
75218;SDS011;63801;49.414;19.474;2022-12-07T05:48:14;8.23;;;4.03;;
75218;SDS011;63801;49.414;19.474;2022-12-07T05:50:15;9.30;;;4.35;;
75218;SDS011;63801;49.414;19.474;2022-12-07T05:52:15;8.80;;;4.57;;
75218;SDS011;63801;49.414;19.474;2022-12-07T05:54:15;8.75;;;3.85;;
75218;SDS011;63801;49.414;19.474;2022-12-07T05:56:16;8.57;;;4.15;;
75218;SDS011;63801;49.414;19.474;2022-12-07T05:58:16;8.23;;;3.72;;
75218;SDS011;63801;49.414;19.474;2022-12-07T06:00:35;7.68;;;3.72;;
75218;SDS011;63801;49.414;19.474;2022-12-07T06:02:35;5.55;;;2.92;;
75218;SDS011;63801;49.414;19.474;2022-12-07T06:04:37;5.40;;;2.38;;
75218;SDS011;63801;49.414;19.474;2022-12-07T06:06:39;4.95;;;2.50;;
75218;SDS011;63801;49.414;19.474;2022-12-07T06:08:39;3.92;;;2.15;;
75218;SDS011;63801;49.414;19.474;2022-12-07T06:10:40;3.67;;;1.95;;
75218;SDS011;63801;49.414;19.474;2022-12-07T06:12:41;4.20;;;2.40;;
75218;SDS011;63801;49.414;19.474;2022-12-07T06:14:43;4.07;;;2.25;;
75218;SDS011;63801;49.414;19.474;2022-12-07T06:16:44;3.70;;;2.10;;
75218;SDS011;63801;49.414;19.474;2022-12-07T06:18:44;3.70;;;2.45;;
75218;SDS011;63801;49.414;19.474;2022-12-07T06:20:44;6.18;;;3.50;;
75218;SDS011;63801;49.414;19.474;2022-12-07T06:22:44;4.85;;;2.67;;
75218;SDS011;63801;49.414;19.474;2022-12-07T06:24:45;5.40;;;2.85;;
75218;SDS011;63801;49.414;19.474;2022-12-07T06:26:45;7.07;;;3.58;;
75218;SDS011;63801;49.414;19.474;2022-12-07T06:28:46;8.77;;;3.60;;
75218;SDS011;63801;49.414;19.474;2022-12-07T06:30:46;8.57;;;3.92;;
75218;SDS011;63801;49.414;19.474;2022-12-07T06:32:46;61.97;;;16.02;;
75218;SDS011;63801;49.414;19.474;2022-12-07T06:34:46;75.85;;;17.35;;
75218;SDS011;63801;49.414;19.474;2022-12-07T06:36:47;47.90;;;11.00;;
75218;SDS011;63801;49.414;19.474;2022-12-07T06:38:51;161.07;;;25.23;;
75218;SDS011;63801;49.414;19.474;2022-12-07T06:40:52;89.25;;;16.10;;
75218;SDS011;63801;49.414;19.474;2022-12-07T06:42:52;99.68;;;17.52;;
75218;SDS011;63801;49.414;19.474;2022-12-07T06:44:52;127.05;;;18.70;;
75218;SDS011;63801;49.414;19.474;2022-12-07T06:46:53;128.35;;;21.38;;
75218;SDS011;63801;49.414;19.474;2022-12-07T06:48:54;64.40;;;14.43;;
75218;SDS011;63801;49.414;19.474;2022-12-07T06:50:54;29.10;;;7.13;;
75218;SDS011;63801;49.414;19.474;2022-12-07T06:52:55;20.00;;;5.35;;
75218;SDS011;63801;49.414;19.474;2022-12-07T06:54:55;14.45;;;4.88;;
75218;SDS011;63801;49.414;19.474;2022-12-07T06:56:55;17.67;;;4.63;;
75218;SDS011;63801;49.414;19.474;2022-12-07T06:58:56;11.25;;;3.78;;
75218;SDS011;63801;49.414;19.474;2022-12-07T07:00:56;9.73;;;3.80;;
75218;SDS011;63801;49.414;19.474;2022-12-07T07:02:56;6.80;;;2.85;;
75218;SDS011;63801;49.414;19.474;2022-12-07T07:04:57;9.02;;;3.28;;
75218;SDS011;63801;49.414;19.474;2022-12-07T07:06:57;5.95;;;3.38;;
75218;SDS011;63801;49.414;19.474;2022-12-07T07:08:57;6.90;;;3.25;;
75218;SDS011;63801;49.414;19.474;2022-12-07T07:10:58;10.35;;;5.22;;
75218;SDS011;63801;49.414;19.474;2022-12-07T07:12:58;11.38;;;3.70;;
75218;SDS011;63801;49.414;19.474;2022-12-07T07:14:58;20.67;;;6.82;;
75218;SDS011;63801;49.414;19.474;2022-12-07T07:16:59;15.07;;;5.15;;
75218;SDS011;63801;49.414;19.474;2022-12-07T07:18:59;27.73;;;8.57;;
75218;SDS011;63801;49.414;19.474;2022-12-07T07:20:59;21.35;;;6.65;;
75218;SDS011;63801;49.414;19.474;2022-12-07T07:23:00;22.30;;;7.75;;
75218;SDS011;63801;49.414;19.474;2022-12-07T07:25:01;13.10;;;6.13;;
75218;SDS011;63801;49.414;19.474;2022-12-07T07:27:01;7.75;;;3.40;;
75218;SDS011;63801;49.414;19.474;2022-12-07T07:29:02;7.00;;;3.53;;
75218;SDS011;63801;49.414;19.474;2022-12-07T07:31:02;9.82;;;4.80;;
75218;SDS011;63801;49.414;19.474;2022-12-07T07:33:03;8.90;;;4.18;;
75218;SDS011;63801;49.414;19.474;2022-12-07T07:35:04;11.07;;;4.93;;
75218;SDS011;63801;49.414;19.474;2022-12-07T07:37:05;6.32;;;3.22;;
75218;SDS011;63801;49.414;19.474;2022-12-07T07:39:05;5.20;;;2.75;;
75218;SDS011;63801;49.414;19.474;2022-12-07T07:41:05;5.68;;;2.90;;
75218;SDS011;63801;49.414;19.474;2022-12-07T07:43:05;7.30;;;3.47;;
75218;SDS011;63801;49.414;19.474;2022-12-07T07:45:06;6.75;;;3.58;;
75218;SDS011;63801;49.414;19.474;2022-12-07T07:47:07;8.50;;;3.90;;
75218;SDS011;63801;49.414;19.474;2022-12-07T07:49:08;6.35;;;2.92;;
75218;SDS011;63801;49.414;19.474;2022-12-07T07:51:09;10.73;;;4.10;;
75218;SDS011;63801;49.414;19.474;2022-12-07T07:53:10;13.43;;;5.47;;
75218;SDS011;63801;49.414;19.474;2022-12-07T07:55:11;21.83;;;8.93;;
75218;SDS011;63801;49.414;19.474;2022-12-07T07:57:12;23.55;;;9.40;;
75218;SDS011;63801;49.414;19.474;2022-12-07T07:59:12;14.88;;;5.25;;
75218;SDS011;63801;49.414;19.474;2022-12-07T08:01:14;10.90;;;5.30;;
75218;SDS011;63801;49.414;19.474;2022-12-07T08:03:14;13.90;;;7.10;;
75218;SDS011;63801;49.414;19.474;2022-12-07T08:05:15;10.80;;;5.45;;
75218;SDS011;63801;49.414;19.474;2022-12-07T08:07:16;11.20;;;6.00;;
75218;SDS011;63801;49.414;19.474;2022-12-07T08:09:16;8.80;;;3.30;;
75218;SDS011;63801;49.414;19.474;2022-12-07T08:11:16;6.70;;;3.15;;
75218;SDS011;63801;49.414;19.474;2022-12-07T08:13:17;6.95;;;3.50;;
75218;SDS011;63801;49.414;19.474;2022-12-07T08:15:17;8.50;;;3.90;;
75218;SDS011;63801;49.414;19.474;2022-12-07T08:17:18;8.88;;;4.55;;
75218;SDS011;63801;49.414;19.474;2022-12-07T08:19:18;6.18;;;2.83;;
75218;SDS011;63801;49.414;19.474;2022-12-07T08:21:18;4.07;;;2.42;;
75218;SDS011;63801;49.414;19.474;2022-12-07T08:23:19;6.18;;;3.38;;
75218;SDS011;63801;49.414;19.474;2022-12-07T08:25:19;13.85;;;4.97;;
75218;SDS011;63801;49.414;19.474;2022-12-07T08:27:20;10.05;;;3.65;;
75218;SDS011;63801;49.414;19.474;2022-12-07T08:29:23;14.27;;;5.40;;
75218;SDS011;63801;49.414;19.474;2022-12-07T08:31:24;14.85;;;6.65;;
75218;SDS011;63801;49.414;19.474;2022-12-07T08:33:24;14.18;;;5.70;;
75218;SDS011;63801;49.414;19.474;2022-12-07T08:35:25;7.63;;;3.72;;
75218;SDS011;63801;49.414;19.474;2022-12-07T08:37:26;17.77;;;7.22;;
75218;SDS011;63801;49.414;19.474;2022-12-07T08:39:26;24.08;;;11.05;;
75218;SDS011;63801;49.414;19.474;2022-12-07T08:41:26;19.77;;;10.23;;
75218;SDS011;63801;49.414;19.474;2022-12-07T08:43:26;24.15;;;9.57;;
75218;SDS011;63801;49.414;19.474;2022-12-07T08:45:27;19.05;;;7.32;;
75218;SDS011;63801;49.414;19.474;2022-12-07T08:47:27;20.85;;;7.93;;
75218;SDS011;63801;49.414;19.474;2022-12-07T08:49:30;22.25;;;8.15;;
75218;SDS011;63801;49.414;19.474;2022-12-07T08:51:35;12.98;;;5.43;;
75218;SDS011;63801;49.414;19.474;2022-12-07T08:53:37;13.48;;;5.93;;
75218;SDS011;63801;49.414;19.474;2022-12-07T08:55:39;23.13;;;7.97;;
75218;SDS011;63801;49.414;19.474;2022-12-07T08:57:39;18.83;;;6.80;;
75218;SDS011;63801;49.414;19.474;2022-12-07T08:59:40;45.10;;;14.50;;
75218;SDS011;63801;49.414;19.474;2022-12-07T09:01:40;27.75;;;9.57;;
75218;SDS011;63801;49.414;19.474;2022-12-07T09:03:41;30.75;;;10.55;;
75218;SDS011;63801;49.414;19.474;2022-12-07T09:05:41;27.13;;;8.68;;
75218;SDS011;63801;49.414;19.474;2022-12-07T09:07:43;33.53;;;10.45;;
75218;SDS011;63801;49.414;19.474;2022-12-07T09:09:46;51.40;;;23.23;;
75218;SDS011;63801;49.414;19.474;2022-12-07T09:11:46;23.23;;;9.63;;
75218;SDS011;63801;49.414;19.474;2022-12-07T09:13:46;29.42;;;12.23;;
75218;SDS011;63801;49.414;19.474;2022-12-07T09:15:47;14.52;;;6.82;;
75218;SDS011;63801;49.414;19.474;2022-12-07T09:17:47;21.98;;;10.55;;
75218;SDS011;63801;49.414;19.474;2022-12-07T09:19:47;18.58;;;8.30;;
75218;SDS011;63801;49.414;19.474;2022-12-07T09:21:47;13.30;;;5.97;;
75218;SDS011;63801;49.414;19.474;2022-12-07T09:23:48;14.07;;;6.63;;
75218;SDS011;63801;49.414;19.474;2022-12-07T09:25:48;14.80;;;7.03;;
75218;SDS011;63801;49.414;19.474;2022-12-07T09:27:54;18.55;;;8.13;;
75218;SDS011;63801;49.414;19.474;2022-12-07T09:29:55;12.50;;;6.13;;
75218;SDS011;63801;49.414;19.474;2022-12-07T09:31:56;15.85;;;6.63;;
75218;SDS011;63801;49.414;19.474;2022-12-07T09:33:57;8.73;;;4.90;;
75218;SDS011;63801;49.414;19.474;2022-12-07T09:35:59;15.50;;;7.22;;
75218;SDS011;63801;49.414;19.474;2022-12-07T09:37:59;23.05;;;12.85;;
75218;SDS011;63801;49.414;19.474;2022-12-07T09:40:00;14.25;;;7.10;;
75218;SDS011;63801;49.414;19.474;2022-12-07T09:42:02;13.13;;;6.18;;
75218;SDS011;63801;49.414;19.474;2022-12-07T09:44:05;17.55;;;8.43;;
75218;SDS011;63801;49.414;19.474;2022-12-07T09:46:11;14.32;;;7.00;;
75218;SDS011;63801;49.414;19.474;2022-12-07T09:48:18;11.55;;;6.07;;
75218;SDS011;63801;49.414;19.474;2022-12-07T09:50:22;10.57;;;5.28;;
75218;SDS011;63801;49.414;19.474;2022-12-07T09:52:27;10.95;;;4.95;;
75218;SDS011;63801;49.414;19.474;2022-12-07T09:54:29;13.43;;;5.53;;
75218;SDS011;63801;49.414;19.474;2022-12-07T09:56:30;8.55;;;4.28;;
75218;SDS011;63801;49.414;19.474;2022-12-07T09:58:31;6.90;;;3.83;;
75218;SDS011;63801;49.414;19.474;2022-12-07T10:00:33;15.27;;;7.80;;
75218;SDS011;63801;49.414;19.474;2022-12-07T10:04:36;8.10;;;4.10;;
75218;SDS011;63801;49.414;19.474;2022-12-07T10:06:38;8.73;;;4.10;;
75218;SDS011;63801;49.414;19.474;2022-12-07T10:08:38;6.10;;;3.80;;
75218;SDS011;63801;49.414;19.474;2022-12-07T10:10:41;7.40;;;3.72;;
75218;SDS011;63801;49.414;19.474;2022-12-07T10:12:58;8.98;;;3.47;;
75218;SDS011;63801;49.414;19.474;2022-12-07T10:15:00;7.80;;;4.03;;
75218;SDS011;63801;49.414;19.474;2022-12-07T10:17:25;7.25;;;3.50;;
75218;SDS011;63801;49.414;19.474;2022-12-07T10:19:36;9.48;;;3.70;;
75218;SDS011;63801;49.414;19.474;2022-12-07T10:21:36;8.25;;;4.05;;
75218;SDS011;63801;49.414;19.474;2022-12-07T10:23:37;12.85;;;5.10;;
75218;SDS011;63801;49.414;19.474;2022-12-07T10:25:39;12.15;;;4.90;;
75218;SDS011;63801;49.414;19.474;2022-12-07T10:27:40;9.93;;;3.97;;
75218;SDS011;63801;49.414;19.474;2022-12-07T10:29:41;5.15;;;2.42;;
75218;SDS011;63801;49.414;19.474;2022-12-07T10:31:59;8.00;;;3.20;;
75218;SDS011;63801;49.414;19.474;2022-12-07T10:34:02;10.77;;;4.78;;
75218;SDS011;63801;49.414;19.474;2022-12-07T10:36:25;8.60;;;3.50;;
75218;SDS011;63801;49.414;19.474;2022-12-07T10:38:35;7.43;;;3.55;;
75218;SDS011;63801;49.414;19.474;2022-12-07T10:41:04;20.50;;;8.43;;
75218;SDS011;63801;49.414;19.474;2022-12-07T10:45:16;8.02;;;4.22;;
75218;SDS011;63801;49.414;19.474;2022-12-07T10:49:39;11.88;;;5.20;;
75218;SDS011;63801;49.414;19.474;2022-12-07T10:52:06;7.32;;;3.65;;
75218;SDS011;63801;49.414;19.474;2022-12-07T10:56:20;5.82;;;2.47;;
75218;SDS011;63801;49.414;19.474;2022-12-07T10:58:37;5.10;;;2.45;;
75218;SDS011;63801;49.414;19.474;2022-12-07T11:00:55;3.70;;;2.40;;
75218;SDS011;63801;49.414;19.474;2022-12-07T11:03:26;5.22;;;2.85;;
75218;SDS011;63801;49.414;19.474;2022-12-07T11:08:09;9.68;;;4.82;;
75218;SDS011;63801;49.414;19.474;2022-12-07T11:15:11;4.75;;;2.33;;
75218;SDS011;63801;49.414;19.474;2022-12-07T11:17:42;4.90;;;2.97;;
75218;SDS011;63801;49.414;19.474;2022-12-07T11:22:31;5.32;;;2.50;;
75218;SDS011;63801;49.414;19.474;2022-12-07T11:29:43;7.35;;;3.28;;
75218;SDS011;63801;49.414;19.474;2022-12-07T11:31:58;4.32;;;2.85;;
75218;SDS011;63801;49.414;19.474;2022-12-07T11:34:08;6.38;;;3.50;;
75218;SDS011;63801;49.414;19.474;2022-12-07T11:41:34;7.25;;;3.38;;
75218;SDS011;63801;49.414;19.474;2022-12-07T11:43:52;9.30;;;4.45;;
75218;SDS011;63801;49.414;19.474;2022-12-07T11:48:30;5.53;;;3.00;;
75218;SDS011;63801;49.414;19.474;2022-12-07T11:50:36;5.03;;;2.70;;
75218;SDS011;63801;49.414;19.474;2022-12-07T11:54:51;4.93;;;2.55;;
75218;SDS011;63801;49.414;19.474;2022-12-07T11:56:53;6.05;;;2.40;;
75218;SDS011;63801;49.414;19.474;2022-12-07T12:03:40;4.90;;;2.70;;
75218;SDS011;63801;49.414;19.474;2022-12-07T12:05:45;8.00;;;3.40;;
75218;SDS011;63801;49.414;19.474;2022-12-07T12:07:46;6.43;;;3.88;;
75218;SDS011;63801;49.414;19.474;2022-12-07T12:09:53;6.60;;;3.50;;
75218;SDS011;63801;49.414;19.474;2022-12-07T12:12:05;4.38;;;2.53;;
75218;SDS011;63801;49.414;19.474;2022-12-07T12:14:15;7.70;;;3.58;;
75218;SDS011;63801;49.414;19.474;2022-12-07T12:19:11;5.65;;;3.08;;
75218;SDS011;63801;49.414;19.474;2022-12-07T12:21:32;7.40;;;3.80;;
75218;SDS011;63801;49.414;19.474;2022-12-07T12:23:35;4.53;;;2.75;;
75218;SDS011;63801;49.414;19.474;2022-12-07T12:29:50;6.93;;;3.73;;
75218;SDS011;63801;49.414;19.474;2022-12-07T12:36:44;8.02;;;3.63;;
75218;SDS011;63801;49.414;19.474;2022-12-07T12:40:59;8.90;;;4.63;;
75218;SDS011;63801;49.414;19.474;2022-12-07T12:43:01;7.68;;;4.20;;
75218;SDS011;63801;49.414;19.474;2022-12-07T12:47:41;7.38;;;4.22;;
75218;SDS011;63801;49.414;19.474;2022-12-07T12:49:43;8.05;;;4.30;;
75218;SDS011;63801;49.414;19.474;2022-12-07T12:54:19;13.90;;;5.53;;
75218;SDS011;63801;49.414;19.474;2022-12-07T12:56:26;9.95;;;4.85;;
75218;SDS011;63801;49.414;19.474;2022-12-07T12:58:38;11.00;;;5.55;;
75218;SDS011;63801;49.414;19.474;2022-12-07T13:00:41;11.63;;;5.55;;
75218;SDS011;63801;49.414;19.474;2022-12-07T13:02:57;7.15;;;3.72;;
75218;SDS011;63801;49.414;19.474;2022-12-07T13:05:00;11.82;;;5.50;;
75218;SDS011;63801;49.414;19.474;2022-12-07T13:07:02;7.93;;;3.83;;
75218;SDS011;63801;49.414;19.474;2022-12-07T13:09:02;23.75;;;10.50;;
75218;SDS011;63801;49.414;19.474;2022-12-07T13:13:31;28.25;;;10.13;;
75218;SDS011;63801;49.414;19.474;2022-12-07T13:17:57;12.35;;;5.60;;
75218;SDS011;63801;49.414;19.474;2022-12-07T13:20:03;15.25;;;6.78;;
75218;SDS011;63801;49.414;19.474;2022-12-07T13:24:31;22.83;;;9.00;;
75218;SDS011;63801;49.414;19.474;2022-12-07T13:26:36;22.92;;;7.90;;
75218;SDS011;63801;49.414;19.474;2022-12-07T13:28:38;17.27;;;6.95;;
75218;SDS011;63801;49.414;19.474;2022-12-07T13:30:43;12.25;;;5.38;;
75218;SDS011;63801;49.414;19.474;2022-12-07T13:32:53;10.70;;;5.22;;
75218;SDS011;63801;49.414;19.474;2022-12-07T13:34:56;11.45;;;5.45;;
75218;SDS011;63801;49.414;19.474;2022-12-07T13:36:56;16.15;;;5.70;;
75218;SDS011;63801;49.414;19.474;2022-12-07T13:38:58;24.02;;;8.07;;
75218;SDS011;63801;49.414;19.474;2022-12-07T13:43:03;36.50;;;10.38;;
75218;SDS011;63801;49.414;19.474;2022-12-07T13:45:20;56.05;;;14.80;;